createdAt,value
2017-12-24T00:00:12.179Z,33.80
2017-12-24T00:02:39.723Z,30.67
2017-12-24T00:05:08.006Z,28.60
2017-12-24T00:07:35.574Z,28.70
2017-12-24T00:10:03.128Z,30.00
2017-12-24T00:12:30.704Z,31.67
2017-12-24T00:14:58.291Z,29.70
2017-12-24T00:17:25.807Z,32.10
2017-12-24T00:19:53.366Z,31.07
2017-12-24T00:22:20.936Z,32.20
2017-12-24T00:24:48.493Z,30.63
2017-12-24T00:27:16.007Z,31.03
2017-12-24T00:29:43.615Z,28.70
2017-12-24T00:32:11.165Z,26.27
2017-12-24T00:34:38.675Z,31.80
2017-12-24T00:37:06.228Z,32.70
2017-12-24T00:39:33.756Z,27.60
2017-12-24T00:42:01.290Z,29.00
2017-12-24T00:44:28.826Z,24.07
2017-12-24T00:46:57.172Z,25.60
2017-12-24T00:52:02.945Z,22.30
2017-12-24T00:54:30.510Z,25.40
2017-12-24T00:56:58.035Z,24.00
2017-12-24T00:59:25.569Z,24.70
2017-12-24T01:01:53.912Z,24.73
2017-12-24T01:04:21.446Z,25.03
2017-12-24T01:06:48.967Z,23.67
2017-12-24T01:09:17.374Z,25.67
2017-12-24T01:11:44.895Z,24.53
2017-12-24T01:14:12.401Z,26.43
2017-12-24T01:16:39.932Z,28.73
2017-12-24T01:19:14.037Z,25.40
2017-12-24T01:21:41.611Z,27.67
2017-12-24T01:24:09.139Z,29.87
2017-12-24T01:26:36.654Z,27.20
2017-12-24T01:29:04.213Z,27.63
2017-12-24T01:31:31.745Z,26.53
2017-12-24T01:33:59.401Z,28.10
2017-12-24T01:36:26.947Z,25.27
2017-12-24T01:38:54.607Z,31.20
2017-12-24T01:41:28.738Z,25.97
2017-12-24T01:43:56.387Z,25.30
2017-12-24T01:46:24.047Z,25.03
2017-12-24T01:51:30.612Z,27.03
2017-12-24T01:56:32.370Z,27.43
2017-12-24T01:58:59.904Z,28.90
2017-12-24T02:01:27.432Z,28.40
2017-12-24T02:03:55.084Z,25.80
2017-12-24T02:06:22.588Z,27.57
2017-12-24T02:08:50.118Z,28.37
2017-12-24T02:11:17.902Z,24.30
2017-12-24T02:13:45.432Z,29.60
2017-12-24T02:16:13.103Z,27.23
2017-12-24T02:18:40.636Z,28.93
2017-12-24T02:21:09.004Z,25.67
2017-12-24T02:23:36.541Z,24.10
2017-12-24T02:26:04.078Z,28.30
2017-12-24T02:28:31.631Z,26.47
2017-12-24T02:30:59.233Z,27.13
2017-12-24T02:33:26.769Z,22.30
2017-12-24T02:35:54.285Z,28.47
2017-12-24T02:38:22.661Z,23.97
2017-12-24T02:40:50.179Z,25.33
2017-12-24T02:43:17.716Z,24.10
2017-12-24T02:45:46.012Z,26.33
2017-12-24T02:48:20.367Z,24.73
2017-12-24T02:50:47.941Z,24.60
2017-12-24T02:53:15.503Z,26.77
2017-12-24T02:55:43.871Z,24.17
2017-12-24T02:58:11.412Z,23.13
2017-12-24T03:00:39.768Z,24.07
2017-12-24T03:03:07.274Z,25.67
2017-12-24T03:05:35.590Z,26.03
2017-12-24T03:08:03.142Z,24.87
2017-12-24T03:10:31.486Z,30.77
2017-12-24T03:12:59.006Z,25.83
2017-12-24T03:15:34.275Z,30.30
2017-12-24T03:18:01.780Z,33.37
2017-12-24T03:20:30.351Z,27.37
2017-12-24T03:22:57.878Z,27.67
2017-12-24T03:25:26.158Z,29.33
2017-12-24T03:27:54.448Z,27.17
2017-12-24T03:30:21.991Z,27.23
2017-12-24T03:32:49.541Z,23.33
2017-12-24T03:35:17.052Z,29.23
2017-12-24T03:37:44.581Z,28.93
2017-12-24T03:40:12.152Z,24.60
2017-12-24T03:42:39.684Z,27.10
2017-12-24T03:45:07.277Z,30.47
2017-12-24T03:47:34.876Z,26.50
2017-12-24T03:50:03.226Z,26.10
2017-12-24T03:52:30.758Z,28.67
2017-12-24T03:54:58.275Z,32.60
2017-12-24T03:57:25.847Z,27.37
2017-12-24T03:59:53.387Z,30.87
2017-12-24T04:02:21.037Z,31.23
2017-12-24T04:04:49.387Z,31.97
2017-12-24T04:07:17.101Z,30.13
2017-12-24T04:09:44.675Z,33.67
2017-12-24T04:14:50.548Z,34.77
2017-12-24T04:17:24.817Z,37.23
2017-12-24T04:19:52.379Z,33.93
2017-12-24T04:22:19.909Z,36.03
2017-12-24T04:24:47.453Z,37.53
2017-12-24T04:29:54.197Z,35.57
2017-12-24T04:32:22.549Z,35.40
2017-12-24T04:34:50.102Z,33.10
2017-12-24T04:37:17.623Z,31.80
2017-12-24T04:39:45.167Z,30.03
2017-12-24T04:42:12.687Z,33.80
2017-12-24T04:44:40.290Z,35.03
2017-12-24T04:47:08.594Z,31.13
2017-12-24T04:49:36.982Z,33.13
2017-12-24T04:52:04.539Z,33.50
2017-12-24T04:54:32.074Z,35.33
2017-12-24T04:56:59.600Z,32.10
2017-12-24T04:59:27.185Z,33.40
2017-12-24T05:01:54.709Z,31.83
2017-12-24T05:04:22.278Z,33.20
2017-12-24T05:06:49.798Z,34.97
2017-12-24T05:09:17.362Z,31.63
2017-12-24T05:11:44.886Z,37.70
2017-12-24T05:14:12.389Z,34.33
2017-12-24T05:16:39.946Z,33.03
2017-12-24T05:19:07.523Z,29.87
2017-12-24T05:21:35.021Z,25.63
2017-12-24T05:24:02.563Z,29.77
2017-12-24T05:26:30.087Z,32.93
2017-12-24T05:28:57.680Z,34.43
2017-12-24T05:31:31.891Z,29.17
2017-12-24T05:33:59.560Z,28.20
2017-12-24T05:36:28.140Z,27.87
2017-12-24T05:38:55.731Z,35.13
2017-12-24T05:41:23.366Z,32.37
2017-12-24T05:43:50.887Z,34.53
2017-12-24T05:46:25.010Z,32.93
2017-12-24T05:48:52.509Z,37.50
2017-12-24T05:51:20.051Z,30.30
2017-12-24T05:53:47.604Z,29.30
2017-12-24T05:56:15.899Z,28.33
2017-12-24T05:58:43.415Z,25.10
2017-12-24T06:01:11.030Z,25.10
2017-12-24T06:03:38.581Z,23.73
2017-12-24T06:06:06.152Z,26.10
2017-12-24T06:08:33.682Z,20.47
2017-12-24T06:11:01.247Z,23.80
2017-12-24T06:13:28.816Z,22.23
2017-12-24T06:15:57.157Z,23.23
2017-12-24T06:18:24.709Z,20.23
2017-12-24T06:20:52.992Z,21.53
2017-12-24T06:23:21.387Z,22.60
2017-12-24T06:25:48.940Z,19.30
2017-12-24T06:28:17.312Z,22.50
2017-12-24T06:30:44.827Z,18.80
2017-12-24T06:33:12.383Z,19.40
2017-12-24T06:35:39.904Z,17.40
2017-12-24T06:38:08.374Z,19.63
2017-12-24T06:40:35.876Z,19.03
2017-12-24T06:43:03.386Z,21.57
2017-12-24T06:45:31.703Z,20.30
2017-12-24T06:47:59.276Z,19.20
2017-12-24T06:50:26.796Z,19.77
2017-12-24T06:52:55.170Z,23.20
2017-12-24T06:55:22.708Z,16.93
2017-12-24T06:57:50.253Z,21.27
2017-12-24T07:00:17.935Z,18.20
2017-12-24T07:05:23.860Z,17.90
2017-12-24T07:07:51.360Z,21.37
2017-12-24T07:10:18.911Z,17.70
2017-12-24T07:12:47.227Z,22.67
2017-12-24T07:15:14.896Z,18.37
2017-12-24T07:17:43.234Z,16.63
2017-12-24T07:20:10.809Z,21.27
2017-12-24T07:22:38.358Z,22.00
2017-12-24T07:25:05.865Z,18.23
2017-12-24T07:27:33.387Z,18.87
2017-12-24T07:30:00.969Z,22.00
2017-12-24T07:32:28.528Z,16.73
2017-12-24T07:34:56.204Z,18.90
2017-12-24T07:37:23.815Z,17.17
2017-12-24T07:39:51.339Z,19.63
2017-12-24T07:42:19.024Z,17.57
2017-12-24T07:44:46.543Z,17.70
2017-12-24T07:47:14.046Z,17.63
2017-12-24T07:49:48.205Z,20.93
2017-12-24T07:52:15.747Z,23.33
2017-12-24T07:54:43.307Z,19.00
2017-12-24T07:57:10.840Z,20.20
2017-12-24T07:59:38.400Z,23.37
2017-12-24T08:02:05.940Z,21.13
2017-12-24T08:04:33.488Z,20.83
2017-12-24T08:07:07.494Z,21.50
2017-12-24T08:09:35.035Z,20.37
2017-12-24T08:14:47.326Z,20.40
2017-12-24T08:17:15.619Z,19.63
2017-12-24T08:19:43.176Z,22.90
2017-12-24T08:22:10.747Z,17.07
2017-12-24T08:24:38.490Z,20.27
2017-12-24T08:27:06.005Z,21.77
2017-12-24T08:29:34.368Z,20.60
2017-12-24T08:32:01.955Z,21.30
2017-12-24T08:34:29.492Z,23.63
2017-12-24T08:36:58.105Z,21.53
2017-12-24T08:39:26.400Z,22.20
2017-12-24T08:41:54.704Z,20.93
2017-12-24T08:44:22.241Z,20.60
2017-12-24T08:46:49.779Z,21.67
2017-12-24T08:49:17.363Z,23.27
2017-12-24T08:51:44.878Z,22.37
2017-12-24T08:54:12.403Z,19.17
2017-12-24T08:59:18.210Z,22.37
2017-12-24T09:01:45.807Z,18.33
2017-12-24T09:04:13.342Z,19.83
2017-12-24T09:06:40.916Z,23.63
2017-12-24T09:09:08.453Z,22.23
2017-12-24T09:11:36.046Z,18.23
2017-12-24T09:14:03.687Z,20.80
2017-12-24T09:16:31.980Z,21.23
2017-12-24T09:18:59.542Z,23.83
2017-12-24T09:21:27.896Z,19.40
2017-12-24T09:23:55.436Z,21.40
2017-12-24T09:26:22.952Z,21.93
2017-12-24T09:28:50.508Z,23.37
2017-12-24T09:31:18.875Z,21.30
2017-12-24T09:33:46.412Z,21.67
2017-12-24T09:36:14.688Z,20.40
2017-12-24T09:38:42.258Z,22.23
2017-12-24T09:41:09.814Z,23.30
2017-12-24T09:43:37.366Z,24.03
2017-12-24T09:46:05.663Z,18.67
2017-12-24T09:48:33.261Z,22.60
2017-12-24T09:51:00.798Z,19.90
2017-12-24T09:53:34.375Z,17.33
2017-12-24T09:56:01.907Z,19.77
2017-12-24T09:58:29.491Z,18.07
2017-12-24T10:00:57.102Z,19.23
2017-12-24T10:03:24.706Z,17.60
2017-12-24T10:05:53.038Z,20.83
2017-12-24T10:08:20.551Z,17.63
2017-12-24T10:10:48.174Z,18.10
2017-12-24T10:13:15.730Z,19.00
2017-12-24T10:15:43.328Z,20.60
2017-12-24T10:18:11.631Z,17.77
2017-12-24T10:20:39.180Z,18.47
2017-12-24T10:23:06.712Z,15.80
2017-12-24T10:25:40.930Z,17.20
2017-12-24T10:28:09.259Z,21.33
2017-12-24T10:30:36.783Z,16.13
2017-12-24T10:33:04.390Z,19.60
2017-12-24T10:35:31.952Z,15.80
2017-12-24T10:37:59.517Z,12.73
2017-12-24T10:40:27.067Z,16.10
2017-12-24T10:42:54.769Z,16.43
2017-12-24T10:45:22.322Z,15.33
2017-12-24T10:47:50.028Z,21.10
2017-12-24T10:50:18.329Z,14.70
2017-12-24T10:52:46.647Z,14.90
2017-12-24T10:55:14.187Z,15.27
2017-12-24T10:57:42.511Z,12.27
2017-12-24T11:00:10.093Z,13.63
2017-12-24T11:02:37.630Z,16.97
2017-12-24T11:05:05.207Z,15.40
2017-12-24T11:07:32.727Z,18.30
2017-12-24T11:10:00.469Z,15.17
2017-12-24T11:12:28.776Z,16.60
2017-12-24T11:14:56.495Z,21.03
2017-12-24T11:17:24.078Z,15.90
2017-12-24T11:19:52.355Z,14.07
2017-12-24T11:22:19.922Z,17.00
2017-12-24T11:24:47.442Z,21.13
2017-12-24T11:27:15.897Z,16.23
2017-12-24T11:29:43.485Z,16.00
2017-12-24T11:32:12.502Z,20.43
2017-12-24T11:34:40.112Z,17.07
2017-12-24T11:37:07.785Z,17.37
2017-12-24T11:39:35.347Z,16.57
2017-12-24T11:42:02.873Z,16.50
2017-12-24T11:44:30.393Z,16.70
2017-12-24T11:46:59.791Z,21.27
2017-12-24T11:49:27.312Z,21.60
2017-12-24T11:51:54.887Z,17.00
2017-12-24T11:54:22.411Z,17.30
2017-12-24T11:56:50.015Z,15.53
2017-12-24T11:59:17.760Z,18.03
2017-12-24T12:01:45.410Z,27.87
2017-12-24T12:04:13.692Z,17.50
2017-12-24T12:06:43.085Z,19.90
2017-12-24T12:09:10.684Z,15.10
2017-12-24T12:11:38.247Z,20.80
2017-12-24T12:14:05.799Z,18.47
2017-12-24T12:16:34.127Z,15.40
2017-12-24T12:19:01.864Z,19.00
2017-12-24T12:21:29.398Z,14.17
2017-12-24T12:23:57.699Z,18.80
2017-12-24T12:26:25.276Z,18.37
2017-12-24T12:28:53.871Z,15.90
2017-12-24T12:31:21.409Z,14.77
2017-12-24T12:33:49.736Z,18.47
2017-12-24T12:36:17.306Z,20.37
2017-12-24T12:38:45.586Z,19.43
2017-12-24T12:41:13.156Z,16.90
2017-12-24T12:43:40.658Z,17.60
2017-12-24T12:46:08.388Z,14.87
2017-12-24T12:48:36.707Z,20.23
2017-12-24T12:51:05.050Z,15.90
2017-12-24T12:53:32.566Z,16.23
2017-12-24T12:56:00.163Z,14.70
2017-12-24T12:58:27.700Z,18.57
2017-12-24T13:00:55.266Z,20.00
2017-12-24T13:03:22.855Z,22.77
2017-12-24T13:05:50.372Z,16.10
2017-12-24T13:08:17.934Z,17.03
2017-12-24T13:10:45.432Z,15.37
2017-12-24T13:13:12.970Z,20.77
2017-12-24T13:15:40.522Z,18.90
2017-12-24T13:18:08.849Z,14.50
2017-12-24T13:20:37.147Z,21.70
2017-12-24T13:23:05.491Z,16.27
2017-12-24T13:25:33.048Z,16.70
2017-12-24T13:28:00.597Z,18.37
2017-12-24T13:30:28.961Z,15.40
2017-12-24T13:32:56.507Z,17.40
2017-12-24T13:35:24.843Z,21.43
2017-12-24T13:37:52.403Z,16.07
2017-12-24T13:40:20.142Z,16.20
2017-12-24T13:42:47.704Z,19.03
2017-12-24T13:45:16.000Z,20.10
2017-12-24T13:47:43.533Z,17.83
2017-12-24T13:50:11.148Z,21.50
2017-12-24T13:52:38.681Z,15.43
2017-12-24T13:55:06.352Z,15.90
2017-12-24T13:57:33.924Z,18.43
2017-12-24T14:00:01.711Z,18.50
2017-12-24T14:02:29.294Z,18.07
2017-12-24T14:04:56.922Z,17.23
2017-12-24T14:07:24.453Z,17.23
2017-12-24T14:09:52.039Z,21.67
2017-12-24T14:12:19.724Z,18.90
2017-12-24T14:14:47.241Z,16.30
2017-12-24T14:17:15.621Z,18.47
2017-12-24T14:19:43.194Z,19.73
2017-12-24T14:22:10.720Z,29.40
2017-12-24T14:24:38.259Z,19.43
2017-12-24T14:27:06.596Z,20.47
2017-12-24T14:29:34.129Z,18.77
2017-12-24T14:32:01.804Z,21.33
2017-12-24T14:34:29.543Z,21.67
2017-12-24T14:36:57.153Z,20.73
2017-12-24T14:39:24.766Z,20.10
2017-12-24T14:41:53.127Z,18.00
2017-12-24T14:44:20.671Z,17.57
2017-12-24T14:46:48.214Z,24.10
2017-12-24T14:49:15.722Z,18.30
2017-12-24T14:51:43.361Z,19.60
2017-12-24T14:54:10.879Z,17.23
2017-12-24T14:56:38.538Z,17.23
2017-12-24T14:59:06.084Z,24.60
2017-12-24T15:01:33.623Z,18.83
2017-12-24T15:04:01.164Z,16.57
2017-12-24T15:06:28.727Z,17.47
2017-12-24T15:11:19.504Z,17.33
2017-12-24T15:13:47.801Z,25.47
2017-12-24T15:16:15.356Z,22.10
2017-12-24T15:18:43.688Z,20.23
2017-12-24T15:21:12.077Z,20.47
2017-12-24T15:23:39.607Z,22.20
2017-12-24T15:26:07.229Z,21.40
2017-12-24T15:28:34.771Z,24.20
2017-12-24T15:31:03.061Z,21.07
2017-12-24T15:33:30.560Z,23.90
2017-12-24T15:35:58.201Z,19.60
2017-12-24T15:38:26.540Z,20.47
2017-12-24T15:40:54.089Z,20.83
2017-12-24T15:43:21.636Z,18.50
2017-12-24T15:45:49.170Z,21.07
2017-12-24T15:48:16.906Z,19.40
2017-12-24T15:50:44.446Z,19.47
2017-12-24T15:53:11.976Z,21.40
2017-12-24T15:55:39.538Z,20.80
2017-12-24T15:58:07.236Z,20.97
2017-12-24T16:00:34.809Z,20.47
2017-12-24T16:03:02.374Z,23.97
2017-12-24T16:05:30.142Z,23.60
2017-12-24T16:07:57.712Z,20.20
2017-12-24T16:10:25.270Z,26.50
2017-12-24T16:12:52.855Z,26.57
2017-12-24T16:15:20.385Z,22.90
2017-12-24T16:17:48.691Z,32.97
2017-12-24T16:20:17.006Z,24.07
2017-12-24T16:22:45.300Z,25.27
2017-12-24T16:25:13.608Z,26.10
2017-12-24T16:27:41.251Z,24.23
2017-12-24T16:30:08.784Z,23.23
2017-12-24T16:32:37.127Z,25.83
2017-12-24T16:35:04.664Z,24.93
2017-12-24T16:37:32.195Z,22.40
2017-12-24T16:40:00.557Z,26.23
2017-12-24T16:42:28.145Z,24.33
2017-12-24T16:44:55.679Z,28.00
2017-12-24T16:47:23.237Z,30.30
2017-12-24T16:49:51.658Z,24.80
2017-12-24T16:52:19.469Z,39.20
2017-12-24T16:54:47.797Z,32.20
2017-12-24T16:57:16.082Z,33.63
2017-12-24T16:59:43.782Z,30.47
2017-12-24T17:02:12.104Z,34.00
2017-12-24T17:04:40.426Z,30.97
2017-12-24T17:07:07.960Z,33.07
2017-12-24T17:09:35.480Z,36.57
2017-12-24T17:12:03.880Z,40.90
2017-12-24T17:14:31.614Z,31.90
2017-12-24T17:16:59.168Z,38.63
2017-12-24T17:19:27.633Z,37.80
2017-12-24T17:21:55.172Z,36.23
2017-12-24T17:24:22.720Z,39.70
2017-12-24T17:26:50.332Z,36.70
2017-12-24T17:29:18.712Z,37.33
2017-12-24T17:31:46.232Z,34.50
2017-12-24T17:34:13.759Z,36.47
2017-12-24T17:36:42.077Z,31.70
2017-12-24T17:39:10.375Z,30.93
2017-12-24T17:41:38.701Z,30.17
2017-12-24T17:44:06.444Z,28.67
2017-12-24T17:46:34.809Z,27.93
2017-12-24T17:49:03.080Z,35.10
2017-12-24T17:51:30.623Z,29.23
2017-12-24T17:53:58.931Z,27.30
2017-12-24T17:56:27.263Z,30.50
2017-12-24T17:58:54.803Z,31.10
2017-12-24T18:01:23.165Z,32.40
2017-12-24T18:03:50.706Z,31.70
2017-12-24T18:06:19.064Z,26.90
2017-12-24T18:08:46.629Z,28.43
2017-12-24T18:11:14.956Z,34.40
2017-12-24T18:13:43.243Z,34.23
2017-12-24T18:16:11.095Z,31.07
2017-12-24T18:18:38.622Z,30.47
2017-12-24T18:21:06.971Z,26.60
2017-12-24T18:23:35.347Z,32.23
2017-12-24T18:26:03.657Z,34.13
2017-12-24T18:28:31.984Z,35.07
2017-12-24T18:30:59.529Z,30.03
2017-12-24T18:33:27.056Z,31.27
2017-12-24T18:35:55.363Z,29.63
2017-12-24T18:38:22.899Z,31.93
2017-12-24T18:40:50.442Z,30.80
2017-12-24T18:43:18.161Z,33.27
2017-12-24T18:45:45.773Z,28.07
2017-12-24T18:48:13.329Z,27.70
2017-12-24T18:50:40.887Z,27.87
2017-12-24T18:53:08.434Z,30.50
2017-12-24T18:55:35.969Z,30.33
2017-12-24T18:58:03.531Z,32.03
2017-12-24T19:00:31.187Z,24.93
2017-12-24T19:02:58.745Z,30.10
2017-12-24T19:05:26.253Z,28.53
2017-12-24T19:07:53.849Z,29.13
2017-12-24T19:10:22.163Z,36.83
2017-12-24T19:12:49.709Z,26.83
2017-12-24T19:15:17.257Z,29.93
2017-12-24T19:17:44.868Z,31.40
2017-12-24T19:20:12.407Z,31.63
2017-12-24T19:22:39.978Z,31.73
2017-12-24T19:25:07.729Z,30.57
2017-12-24T19:27:35.407Z,27.60
2017-12-24T19:30:02.969Z,29.67
2017-12-24T19:32:31.295Z,28.37
2017-12-24T19:34:59.573Z,42.03
2017-12-24T19:37:27.173Z,24.83
2017-12-24T19:39:54.720Z,25.90
2017-12-24T19:42:22.330Z,25.63
2017-12-24T19:44:49.834Z,28.67
2017-12-24T19:47:17.451Z,28.10
2017-12-24T19:49:44.974Z,34.20
2017-12-24T19:52:12.547Z,28.17
2017-12-24T19:54:40.075Z,29.43
2017-12-24T19:57:08.392Z,32.93
2017-12-24T19:59:35.948Z,31.97
2017-12-24T20:02:04.294Z,29.07
2017-12-24T20:04:31.846Z,32.43
2017-12-24T20:06:59.491Z,29.90
2017-12-24T20:09:27.033Z,33.03
2017-12-24T20:11:54.752Z,28.53
2017-12-24T20:14:23.130Z,33.07
2017-12-24T20:16:50.803Z,30.00
2017-12-24T20:19:19.128Z,30.57
2017-12-24T20:21:46.630Z,30.03
2017-12-24T20:24:14.197Z,31.77
2017-12-24T20:26:42.795Z,32.90
2017-12-24T20:29:11.168Z,31.83
2017-12-24T20:31:39.018Z,34.27
2017-12-24T20:34:07.400Z,29.27
2017-12-24T20:36:34.947Z,30.93
2017-12-24T20:39:03.230Z,33.00
2017-12-24T20:41:30.768Z,26.97
2017-12-24T20:43:58.428Z,32.67
2017-12-24T20:46:25.985Z,30.60
2017-12-24T20:48:53.617Z,37.00
2017-12-24T20:51:21.942Z,30.00
2017-12-24T20:53:49.509Z,29.93
2017-12-24T20:56:17.109Z,26.47
2017-12-24T20:58:44.693Z,41.80
2017-12-24T21:01:12.255Z,39.47
2017-12-24T21:03:39.783Z,33.30
2017-12-24T21:06:07.322Z,35.33
2017-12-24T21:08:34.867Z,32.53
2017-12-24T21:11:03.171Z,30.13
2017-12-24T21:13:30.763Z,30.50
2017-12-24T21:15:58.427Z,31.13
2017-12-24T21:18:25.982Z,31.37
2017-12-24T21:20:54.293Z,32.57
2017-12-24T21:23:21.883Z,28.80
2017-12-24T21:25:49.417Z,31.67
2017-12-24T21:28:17.726Z,36.03
2017-12-24T21:30:45.320Z,32.97
2017-12-24T21:33:12.844Z,36.40
2017-12-24T21:35:41.166Z,34.10
2017-12-24T21:38:09.489Z,32.97
2017-12-24T21:40:37.041Z,35.30
2017-12-24T21:43:04.646Z,34.03
2017-12-24T21:45:32.174Z,33.67
2017-12-24T21:47:59.748Z,34.27
2017-12-24T21:50:27.289Z,32.80
2017-12-24T21:52:55.697Z,29.50
2017-12-24T21:55:24.026Z,33.13
2017-12-24T21:57:51.569Z,31.93
2017-12-24T22:00:19.158Z,29.40
2017-12-24T22:02:46.734Z,34.63
2017-12-24T22:05:14.286Z,33.30
2017-12-24T22:07:41.834Z,33.00
2017-12-24T22:10:09.373Z,38.63
2017-12-24T22:12:37.701Z,31.33
2017-12-24T22:15:05.466Z,29.50
2017-12-24T22:17:33.029Z,33.57
2017-12-24T22:20:00.846Z,39.43
2017-12-24T22:22:29.150Z,32.63
2017-12-24T22:24:56.820Z,29.40
2017-12-24T22:27:24.552Z,31.80
2017-12-24T22:29:52.073Z,35.90
2017-12-24T22:32:19.606Z,31.10
2017-12-24T22:34:47.134Z,41.93
2017-12-24T22:37:14.878Z,32.10
2017-12-24T22:39:42.405Z,37.93
2017-12-24T22:42:10.930Z,35.23
2017-12-24T22:44:39.835Z,35.70
2017-12-24T22:47:07.414Z,34.13
2017-12-24T22:49:34.974Z,36.83
2017-12-24T22:52:02.610Z,33.67
2017-12-24T22:54:30.162Z,36.80
2017-12-24T22:56:57.862Z,39.53
2017-12-24T22:59:25.426Z,40.00
2017-12-24T23:01:52.982Z,47.80
2017-12-24T23:04:20.511Z,43.00
2017-12-24T23:06:48.048Z,41.17
2017-12-24T23:09:15.856Z,39.70
2017-12-24T23:11:43.521Z,41.30
2017-12-24T23:14:11.105Z,41.70
2017-12-24T23:16:38.653Z,36.50
2017-12-24T23:19:06.201Z,41.43
2017-12-24T23:21:34.519Z,39.30
2017-12-24T23:24:02.134Z,41.13
2017-12-24T23:26:29.682Z,40.37
2017-12-24T23:28:57.991Z,42.60
2017-12-24T23:31:25.608Z,41.50
2017-12-24T23:33:53.175Z,57.97
2017-12-24T23:36:20.706Z,44.60
2017-12-24T23:38:48.266Z,46.67
2017-12-24T23:41:15.901Z,44.77
2017-12-24T23:43:43.792Z,43.33
2017-12-24T23:46:11.382Z,42.57
2017-12-24T23:48:39.004Z,45.53
2017-12-24T23:51:06.787Z,36.80
2017-12-24T23:53:34.429Z,40.40
2017-12-24T23:56:01.985Z,43.80
2017-12-24T23:58:29.593Z,41.20
